Time;durP1;ratioP1;P1;durP2;ratioP2;P2;SDS_P1;SDS_P2;PMS_P1;PMS_P2;Temp;Humidity;BMP_temperature;BMP_pressure;BME280_temperature;BME280_humidity;BME280_pressure;Samples;Min_cycle;Max_cycle;Signal;HPM_P1;HPM_P2
2021/08/02 00:02:49;;;;;;;;;;;;;;;16.10;100.00;100180.16;5075363;28;19923;-66
2021/08/02 00:05:36;;;;;;;;;;;;;;;16.04;100.00;100180.88;5075302;28;19943;-66
2021/08/02 00:08:21;;;;;;;;;;;;;;;16.06;100.00;100184.19;5061870;28;19970;-66
2021/08/02 00:11:05;;;;;;;;;;;;;;;15.99;100.00;100185.13;5061683;28;20293;-66
2021/08/02 00:13:49;;;;;;;;;;;;;;;15.95;100.00;100187.31;5061334;28;20294;-66
2021/08/02 00:16:34;;;;;;;;;;;;;;;15.98;100.00;100178.06;5075134;28;19923;-66
2021/08/02 00:19:18;;;;;;;;;;;;;;;15.94;100.00;100188.34;5061363;28;19968;-66
2021/08/02 00:22:02;;;;;;;;;;;;;;;15.93;100.00;100193.88;5075436;28;20415;-67
2021/08/02 00:24:46;;;;;;;;;;;;;;;15.89;100.00;100189.91;5061001;28;19966;-66
2021/08/02 00:27:30;;;;;;;;;;;;;;;15.81;100.00;100196.19;5075001;28;20338;-66
2021/08/02 00:30:14;;;;;;;;;;;;;;;15.81;100.00;100193.50;5075297;28;20001;-66
2021/08/02 00:32:58;;;;;;;;;;;;;;;15.77;100.00;100194.03;5074991;28;19924;-66
2021/08/02 00:35:47;;;;;;;;;;;;;;;15.68;100.00;100200.47;5059720;28;20061;-66
2021/08/02 00:38:32;;;;;;;;;;;;;;;15.69;100.00;100207.50;5060817;28;20331;-66
2021/08/02 00:41:17;;;;;;;;;;;;;;;15.62;100.00;100208.41;5060933;28;19923;-66
2021/08/02 00:44:15;;;;;;;;;;;;;;;15.61;100.00;100209.44;5060909;28;20422;-66
2021/08/02 00:47:02;;;;;;;;;;;;;;;15.57;100.00;100213.47;5061070;28;19931;-66
2021/08/02 00:49:51;;;;;;;;;;;;;;;15.56;100.00;100195.66;5074538;28;19961;-66
2021/08/02 00:52:34;;;;;;;;;;;;;;;15.50;100.00;100207.16;5060779;28;20025;-66
2021/08/02 00:55:19;;;;;;;;;;;;;;;15.44;100.00;100205.16;5060320;28;19923;-66
2021/08/02 00:58:04;;;;;;;;;;;;;;;15.42;100.00;100196.44;5060610;28;19989;-66
2021/08/02 01:00:48;;;;;;;;;;;;;;;15.44;100.00;100197.94;5060363;28;19922;-66
2021/08/02 01:03:32;;;;;;;;;;;;;;;15.38;100.00;100192.41;5060882;28;19923;-66
2021/08/02 01:06:16;;;;;;;;;;;;;;;15.35;100.00;100195.47;5074345;28;19927;-66
2021/08/02 01:09:04;;;;;;;;;;;;;;;15.31;100.00;100199.53;5060428;28;20348;-66
2021/08/02 01:11:48;;;;;;;;;;;;;;;15.24;100.00;100195.81;5074338;28;19966;-66
2021/08/02 01:14:32;;;;;;;;;;;;;;;15.21;100.00;100198.88;5060590;28;20270;-66
2021/08/02 01:17:16;;;;;;;;;;;;;;;15.14;100.00;100198.75;5059907;28;20009;-66
2021/08/02 01:20:02;;;;;;;;;;;;;;;15.10;100.00;100191.22;5060210;28;19924;-66
2021/08/02 01:22:46;;;;;;;;;;;;;;;15.07;100.00;100204.97;5074083;28;20423;-66
2021/08/02 01:25:33;;;;;;;;;;;;;;;15.06;100.00;100198.78;5060074;28;19963;-67
2021/08/02 01:28:20;;;;;;;;;;;;;;;15.06;100.00;100187.19;5075240;28;19923;-66
2021/08/02 01:31:11;;;;;;;;;;;;;;;15.07;100.00;100191.53;5074093;28;19924;-66
2021/08/02 01:33:54;;;;;;;;;;;;;;;15.08;100.00;100204.78;5059939;28;19969;-66
2021/08/02 01:36:38;;;;;;;;;;;;;;;15.08;100.00;100190.56;5059440;28;20013;-66
2021/08/02 01:39:22;;;;;;;;;;;;;;;15.06;100.00;100184.50;5059855;28;19924;-66
2021/08/02 01:42:06;;;;;;;;;;;;;;;15.05;100.00;100185.50;5059775;28;19975;-66
2021/08/02 01:44:50;;;;;;;;;;;;;;;15.03;100.00;100192.91;5059670;28;20372;-66
2021/08/02 01:47:40;;;;;;;;;;;;;;;15.04;100.00;100189.22;5073667;28;20289;-66
2021/08/02 01:50:27;;;;;;;;;;;;;;;15.02;100.00;100191.22;5059337;28;19966;-66
2021/08/02 01:53:14;;;;;;;;;;;;;;;15.03;100.00;100190.22;5073098;28;19966;-66
2021/08/02 01:56:02;;;;;;;;;;;;;;;15.01;100.00;100194.94;5073216;28;19946;-67
2021/08/02 01:58:52;;;;;;;;;;;;;;;15.04;100.00;100197.25;5059215;28;19923;-66
2021/08/02 02:01:39;;;;;;;;;;;;;;;15.05;100.00;100193.56;5073248;28;20426;-66
2021/08/02 02:04:24;;;;;;;;;;;;;;;15.07;100.00;100196.91;5059262;28;20431;-66
2021/08/02 02:07:09;;;;;;;;;;;;;;;15.10;100.00;100199.25;5059013;28;20023;-66
2021/08/02 02:09:52;;;;;;;;;;;;;;;15.11;100.00;100200.94;5058975;28;19992;-66
2021/08/02 02:12:36;;;;;;;;;;;;;;;15.12;100.00;100202.59;5058830;28;19924;-66
2021/08/02 02:15:20;;;;;;;;;;;;;;;15.14;100.00;100200.56;5059038;28;20034;-66
2021/08/02 02:18:04;;;;;;;;;;;;;;;15.13;100.00;100193.53;5059407;28;20273;-66
2021/08/02 02:20:49;;;;;;;;;;;;;;;15.16;100.00;100203.91;5059398;28;19924;-65
2021/08/02 02:23:33;;;;;;;;;;;;;;;15.18;100.00;100204.56;5073165;28;20289;-66
2021/08/02 02:26:17;;;;;;;;;;;;;;;15.15;100.00;100207.63;5058719;28;19926;-67
2021/08/02 02:29:01;;;;;;;;;;;;;;;15.10;100.00;100205.44;5058943;28;19966;-66
2021/08/02 02:31:46;;;;;;;;;;;;;;;15.11;100.00;100192.88;5073098;28;19982;-66
2021/08/02 02:34:30;;;;;;;;;;;;;;;15.11;100.00;100200.94;5058967;28;20013;-66
2021/08/02 02:37:14;;;;;;;;;;;;;;;15.14;100.00;100200.56;5071961;28;19923;-66
2021/08/02 02:39:58;;;;;;;;;;;;;;;15.13;100.00;100205.13;5058829;28;20284;-66
2021/08/02 02:42:42;;;;;;;;;;;;;;;15.13;100.00;100204.28;5058766;28;19967;-66
2021/08/02 02:45:26;;;;;;;;;;;;;;;15.12;100.00;100205.28;5058328;28;20288;-66
2021/08/02 02:48:10;;;;;;;;;;;;;;;15.11;100.00;100206.31;5058724;28;19966;-66
2021/08/02 02:50:54;;;;;;;;;;;;;;;15.07;100.00;100205.81;5058181;28;19922;-67
2021/08/02 02:53:41;;;;;;;;;;;;;;;15.07;100.00;100211.19;5058536;28;19923;-66
2021/08/02 02:56:25;;;;;;;;;;;;;;;15.07;100.00;100210.31;5058364;28;19961;-66
2021/08/02 02:59:09;;;;;;;;;;;;;;;15.06;100.00;100211.34;5058345;28;19943;-66
2021/08/02 03:01:53;;;;;;;;;;;;;;;15.04;100.00;100216.06;5058581;28;19939;-66
2021/08/02 03:04:38;;;;;;;;;;;;;;;15.07;100.00;100218.38;5058560;28;19923;-66
2021/08/02 03:07:22;;;;;;;;;;;;;;;15.04;100.00;100216.06;5058152;28;19924;-66
2021/08/02 03:10:06;;;;;;;;;;;;;;;15.04;100.00;100221.44;5072621;28;20426;-66
2021/08/02 03:12:51;;;;;;;;;;;;;;;15.03;100.00;100217.06;5058472;28;20377;-66
2021/08/02 03:15:34;;;;;;;;;;;;;;;15.05;100.00;100223.09;5058042;28;20336;-65
2021/08/02 03:18:18;;;;;;;;;;;;;;;15.11;100.00;100223.22;5072444;28;19924;-66
2021/08/02 03:21:03;;;;;;;;;;;;;;;15.10;100.00;100212.69;5058404;28;19972;-66
2021/08/02 03:23:47;;;;;;;;;;;;;;;15.13;100.00;100220.38;5072558;28;19923;-66
2021/08/02 03:26:36;;;;;;;;;;;;;;;15.12;100.00;100224.91;5071991;28;19928;-66
2021/08/02 03:29:22;;;;;;;;;;;;;;;15.12;100.00;100229.44;5058621;28;19970;-66
2021/08/02 03:32:11;;;;;;;;;;;;;;;15.12;100.00;100240.19;5058649;28;19923;-66
2021/08/02 03:34:56;;;;;;;;;;;;;;;15.12;100.00;100235.66;5057997;28;20335;-66
2021/08/02 03:37:40;;;;;;;;;;;;;;;15.13;100.00;100241.88;5058383;28;20011;-66
2021/08/02 03:40:24;;;;;;;;;;;;;;;15.14;100.00;100240.84;5057954;28;19923;-66
2021/08/02 03:43:08;;;;;;;;;;;;;;;15.13;100.00;100242.72;5058478;28;19922;-65
2021/08/02 03:45:52;;;;;;;;;;;;;;;15.11;100.00;100250.09;5071890;28;19928;-66
2021/08/02 03:48:36;;;;;;;;;;;;;;;15.08;100.00;100236.19;5058120;28;20346;-66
2021/08/02 03:51:20;;;;;;;;;;;;;;;15.09;100.00;100243.22;5057789;28;19981;-66
2021/08/02 03:54:04;;;;;;;;;;;;;;;15.10;100.00;100252.97;5057938;28;19938;-66
2021/08/02 03:56:48;;;;;;;;;;;;;;;15.08;100.00;100249.63;5072186;28;19970;-66
2021/08/02 03:59:33;;;;;;;;;;;;;;;15.06;100.00;100246.25;5072471;28;20009;-66
2021/08/02 04:02:17;;;;;;;;;;;;;;;15.01;100.00;100254.00;5071991;28;19931;-66
2021/08/02 04:05:01;;;;;;;;;;;;;;;15.03;100.00;100251.97;5057627;28;19943;-66
2021/08/02 04:07:47;;;;;;;;;;;;;;;15.02;100.00;100250.28;5058282;28;19970;-66
2021/08/02 04:10:31;;;;;;;;;;;;;;;15.01;100.00;100251.31;5059115;28;20015;-66
2021/08/02 04:13:19;;;;;;;;;;;;;;;15.07;100.00;100262.19;5061240;28;19923;-66
2021/08/02 04:16:03;;;;;;;;;;;;;;;15.05;100.00;100268.72;5061569;28;19923;-66
2021/08/02 04:18:47;;;;;;;;;;;;;;;15.07;100.00;100258.66;5061424;28;19923;-66
2021/08/02 04:21:31;;;;;;;;;;;;;;;15.04;100.00;100267.06;5061346;28;20324;-66
2021/08/02 04:24:14;;;;;;;;;;;;;;;15.05;100.00;100256.16;5061314;28;20005;-66
2021/08/02 04:26:58;;;;;;;;;;;;;;;15.10;100.00;100269.06;5060819;28;19927;-66
2021/08/02 04:29:42;;;;;;;;;;;;;;;15.06;100.00;100267.72;5075030;28;19998;-66
2021/08/02 04:32:26;;;;;;;;;;;;;;;15.09;100.00;100267.41;5061164;28;20404;-66
2021/08/02 04:35:10;;;;;;;;;;;;;;;15.13;100.00;100264.19;5060731;28;19943;-66
2021/08/02 04:37:54;;;;;;;;;;;;;;;15.18;100.00;100260.97;5060821;28;20028;-66
2021/08/02 04:40:38;;;;;;;;;;;;;;;15.21;100.00;100274.06;5060988;28;20495;-66
2021/08/02 04:43:22;;;;;;;;;;;;;;;15.20;100.00;100267.84;5075223;28;20039;-67
2021/08/02 04:46:06;;;;;;;;;;;;;;;15.20;100.00;100275.06;5060770;28;20324;-66
2021/08/02 04:48:50;;;;;;;;;;;;;;;15.22;100.00;100268.50;5060817;28;19923;-66
2021/08/02 04:51:34;;;;;;;;;;;;;;;15.25;100.00;100265.50;5060573;28;19965;-67
2021/08/02 04:54:18;;;;;;;;;;;;;;;15.29;100.00;100265.97;5060679;28;20449;-66
2021/08/02 04:57:02;;;;;;;;;;;;;;;15.36;100.00;100272.34;5075053;28;19924;-66
2021/08/02 04:59:46;;;;;;;;;;;;;;;15.33;100.00;100268.19;5060925;28;20483;-66
2021/08/02 05:02:30;;;;;;;;;;;;;;;15.36;100.00;100280.41;5074761;28;19927;-66
2021/08/02 05:05:13;;;;;;;;;;;;;;;15.37;100.00;100274.00;5062090;28;19928;-67
2021/08/02 05:07:57;;;;;;;;;;;;;;;15.38;100.00;100275.69;5074356;28;19923;-66
2021/08/02 05:10:41;;;;;;;;;;;;;;;15.42;100.00;100274.34;5074594;28;20444;-67
2021/08/02 05:13:25;;;;;;;;;;;;;;;15.44;100.00;100275.84;5060706;28;19923;-66
2021/08/02 05:16:09;;;;;;;;;;;;;;;15.43;100.00;100282.22;5060274;28;19973;-66
2021/08/02 05:18:53;;;;;;;;;;;;;;;15.49;100.00;100275.31;5060275;28;20384;-66
2021/08/02 05:21:37;;;;;;;;;;;;;;;15.48;100.00;100284.38;5073789;28;20499;-67
2021/08/02 05:24:20;;;;;;;;;;;;;;;15.52;100.00;100285.72;5060093;28;20395;-66
2021/08/02 05:27:04;;;;;;;;;;;;;;;15.50;100.00;100290.44;5073957;28;19928;-66
2021/08/02 05:29:48;;;;;;;;;;;;;;;15.52;100.00;100293.78;5060104;28;19924;-66
2021/08/02 05:32:32;;;;;;;;;;;;;;;15.57;100.00;100294.06;5059744;28;19962;-66
2021/08/02 05:35:16;;;;;;;;;;;;;;;15.66;100.00;100288.50;5059905;28;19924;-66
2021/08/02 05:38:00;;;;;;;;;;;;;;;15.74;100.00;100291.97;5059915;28;20023;-66
2021/08/02 05:40:44;;;;;;;;;;;;;;;15.79;100.00;100289.59;5059567;28;19924;-66
2021/08/02 05:43:28;;;;;;;;;;;;;;;15.79;100.00;100296.81;5059893;28;19924;-66
2021/08/02 05:46:12;;;;;;;;;;;;;;;15.78;100.00;100298.66;5059455;28;19955;-66
2021/08/02 05:48:56;;;;;;;;;;;;;;;15.87;100.00;100297.59;5059810;28;20393;-66
2021/08/02 05:51:40;;;;;;;;;;;;;;;15.86;100.00;100298.63;5059452;28;19966;-66
2021/08/02 05:54:24;;;;;;;;;;;;;;;15.92;100.00;100295.22;5059310;28;20011;-66
2021/08/02 05:57:08;;;;;;;;;;;;;;;16.04;100.00;100315.31;5059214;28;19939;-66
2021/08/02 05:59:52;;;;;;;;;;;;;;;16.10;100.00;100306.56;5059799;28;19923;-66
2021/08/02 06:02:36;;;;;;;;;;;;;;;16.19;100.00;100300.06;5059700;28;19942;-66
2021/08/02 06:05:20;;;;;;;;;;;;;;;16.30;100.00;100305.06;5058956;28;19927;-67
2021/08/02 06:08:04;;;;;;;;;;;;;;;16.47;100.00;100303.94;5059273;28;19924;-66
2021/08/02 06:10:48;;;;;;;;;;;;;;;16.44;100.00;100307.00;5059012;28;19942;-65
2021/08/02 06:13:32;;;;;;;;;;;;;;;16.55;100.00;100311.94;5058848;28;20331;-67
2021/08/02 06:16:20;;;;;;;;;;;;;;;16.58;100.00;100308.88;5059142;28;19961;-66
2021/08/02 06:19:04;;;;;;;;;;;;;;;16.65;100.00;100317.91;5073219;28;19966;-65
2021/08/02 06:21:48;;;;;;;;;;;;;;;16.70;100.00;100312.81;5073055;28;19923;-66
2021/08/02 06:24:31;;;;;;;;;;;;;;;16.77;100.00;100313.75;5058559;28;20411;-66
2021/08/02 06:27:16;;;;;;;;;;;;;;;16.98;100.00;100308.50;5072951;28;19927;-66
2021/08/02 06:30:00;;;;;;;;;;;;;;;17.07;100.00;100315.47;5073006;28;19927;-67
2021/08/02 06:32:44;;;;;;;;;;;;;;;17.18;100.00;100312.31;5057795;28;19923;-66
2021/08/02 06:35:28;;;;;;;;;;;;;;;17.20;100.00;100321.06;5072714;28;19924;-66
2021/08/02 06:38:12;;;;;;;;;;;;;;;17.29;100.00;100329.91;5072361;28;20367;-66
2021/08/02 06:40:55;;;;;;;;;;;;;;;17.35;100.00;100324.63;5058661;28;19943;-66
2021/08/02 06:43:40;;;;;;;;;;;;;;;17.49;100.00;100325.66;5058743;28;20445;-67
2021/08/02 06:46:24;;;;;;;;;;;;;;;17.45;100.00;100324.34;5058605;28;19928;-67
2021/08/02 06:49:08;;;;;;;;;;;;;;;17.58;100.00;100321.81;5058358;28;20053;-67
2021/08/02 06:51:52;;;;;;;;;;;;;;;17.62;100.00;100326.63;5073381;28;19924;-66
2021/08/02 06:54:36;;;;;;;;;;;;;;;17.69;100.00;100327.56;5058580;28;19965;-67
2021/08/02 06:57:20;;;;;;;;;;;;;;;17.65;100.00;100326.28;5058185;28;20015;-65
2021/08/02 07:00:05;;;;;;;;;;;;;;;17.42;100.00;100314.75;5058396;28;19923;-67
2021/08/02 07:02:49;;;;;;;;;;;;;;;17.55;100.00;100319.50;5058868;28;19923;-66
2021/08/02 07:05:33;;;;;;;;;;;;;;;17.55;100.00;100317.66;5058481;28;19969;-66
2021/08/02 07:08:18;;;;;;;;;;;;;;;17.67;100.00;100318.84;5072680;28;19979;-67
2021/08/02 07:11:03;;;;;;;;;;;;;;;17.73;100.00;100318.06;5059002;28;19998;-67
2021/08/02 07:13:46;;;;;;;;;;;;;;;17.68;100.00;100320.50;5058275;28;19931;-66
2021/08/02 07:16:30;;;;;;;;;;;;;;;17.77;100.00;100318.53;5058342;28;20416;-67
2021/08/02 07:19:14;;;;;;;;;;;;;;;18.04;100.00;100318.69;5058306;28;19970;-67
2021/08/02 07:21:58;;;;;;;;;;;;;;;18.27;98.48;100319.34;5058264;28;19924;-67
2021/08/02 07:24:42;;;;;;;;;;;;;;;18.33;97.42;100315.88;5058336;28;19970;-66
2021/08/02 07:27:26;;;;;;;;;;;;;;;18.28;96.70;100315.59;5058234;28;19927;-66
2021/08/02 07:30:10;;;;;;;;;;;;;;;18.41;96.26;100318.47;5073148;28;20419;-67
2021/08/02 07:32:53;;;;;;;;;;;;;;;18.53;94.63;100317.75;5057921;28;20455;-67
2021/08/02 07:35:37;;;;;;;;;;;;;;;18.52;95.24;100316.09;5058080;28;19939;-66
2021/08/02 07:38:22;;;;;;;;;;;;;;;18.65;94.50;100323.44;5058347;28;20053;-67
2021/08/02 07:41:05;;;;;;;;;;;;;;;18.81;93.79;100315.09;5057711;28;19939;-67
2021/08/02 07:43:49;;;;;;;;;;;;;;;18.84;92.07;100315.53;5072532;28;19927;-67
2021/08/02 07:46:33;;;;;;;;;;;;;;;18.89;93.32;100317.66;5061155;28;20349;-67
2021/08/02 07:49:17;;;;;;;;;;;;;;;18.96;92.38;100327.47;5061807;28;19958;-67
2021/08/02 07:52:01;;;;;;;;;;;;;;;18.85;91.89;100322.59;5061215;28;19924;-67
2021/08/02 07:54:44;;;;;;;;;;;;;;;18.73;94.45;100328.72;5061022;28;19928;-66
2021/08/02 07:57:31;;;;;;;;;;;;;;;18.89;93.48;100326.56;5061394;28;19923;-67
2021/08/02 08:00:18;;;;;;;;;;;;;;;19.00;94.30;100328.72;5062034;28;19940;-67
2021/08/02 08:03:05;;;;;;;;;;;;;;;19.13;91.54;100336.97;5061709;28;19939;-67
2021/08/02 08:05:49;;;;;;;;;;;;;;;19.00;89.50;100322.50;5075272;28;19934;-67
2021/08/02 08:08:33;;;;;;;;;;;;;;;19.11;88.94;100333.63;5061277;28;20427;-66
2021/08/02 08:11:17;;;;;;;;;;;;;;;19.27;87.07;100327.09;5061782;28;19943;-67
2021/08/02 08:14:02;;;;;;;;;;;;;;;19.55;85.75;100328.72;5075275;28;20439;-67
2021/08/02 08:16:46;;;;;;;;;;;;;;;19.97;85.71;100322.22;5075394;28;20387;-67
2021/08/02 08:19:31;;;;;;;;;;;;;;;20.12;82.86;100322.94;5061177;28;20458;-66
2021/08/02 08:22:14;;;;;;;;;;;;;;;20.22;80.22;100323.38;5061481;28;20381;-67
2021/08/02 08:24:58;;;;;;;;;;;;;;;20.70;76.92;100319.47;5061153;28;19924;-67
2021/08/02 08:27:42;;;;;;;;;;;;;;;21.14;76.37;100320.53;5061191;28;19959;-67
2021/08/02 08:30:27;;;;;;;;;;;;;;;21.20;75.05;100325.94;5075493;28;19973;-67
2021/08/02 08:33:11;;;;;;;;;;;;;;;20.96;72.67;100319.53;5075461;28;19970;-66
2021/08/02 08:35:55;;;;;;;;;;;;;;;21.02;74.18;100327.66;5060927;28;19924;-67
2021/08/02 08:38:40;;;;;;;;;;;;;;;20.86;75.04;100332.66;5061025;28;19957;-66
2021/08/02 08:41:24;;;;;;;;;;;;;;;20.90;75.15;100323.06;5075794;28;19923;-67
2021/08/02 08:44:08;;;;;;;;;;;;;;;20.94;75.23;100321.63;5060986;28;20146;-67
2021/08/02 08:46:52;;;;;;;;;;;;;;;21.22;75.09;100319.50;5061002;28;19928;-66
2021/08/02 08:49:36;;;;;;;;;;;;;;;21.25;71.15;100318.03;5061033;28;19939;-66
2021/08/02 08:52:20;;;;;;;;;;;;;;;21.38;71.01;100318.00;5060463;28;19950;-67
2021/08/02 08:55:04;;;;;;;;;;;;;;;21.39;71.63;100326.97;5060604;28;19931;-67
2021/08/02 08:57:48;;;;;;;;;;;;;;;21.29;71.18;100319.28;5059770;28;19965;-67
2021/08/02 09:00:34;;;;;;;;;;;;;;;21.25;72.91;100328.03;5060320;28;19924;-67
2021/08/02 09:03:18;;;;;;;;;;;;;;;21.20;72.29;100336.78;5060628;28;20047;-67
2021/08/02 09:06:05;;;;;;;;;;;;;;;21.16;73.52;100323.06;5060381;28;20460;-67
2021/08/02 09:08:49;;;;;;;;;;;;;;;21.35;73.65;100325.72;5074332;28;19966;-67
2021/08/02 09:11:33;;;;;;;;;;;;;;;21.48;71.84;100326.53;5060347;28;19924;-66
2021/08/02 09:14:20;;;;;;;;;;;;;;;21.61;72.54;100331.09;5060046;28;19923;-67
2021/08/02 09:17:04;;;;;;;;;;;;;;;21.69;70.97;100326.28;5060658;28;19924;-67
2021/08/02 09:19:48;;;;;;;;;;;;;;;21.49;71.92;100330.91;5060236;28;19922;-67
2021/08/02 09:22:33;;;;;;;;;;;;;;;21.45;70.84;100329.66;5060195;28;19939;-67
2021/08/02 09:25:21;;;;;;;;;;;;;;;21.97;70.58;100324.09;5059742;28;20334;-67
2021/08/02 09:28:12;;;;;;;;;;;;;;;22.34;68.29;100333.28;5060502;28;19958;-67
2021/08/02 09:30:56;;;;;;;;;;;;;;;22.09;67.91;100337.81;5060053;28;19924;-66
2021/08/02 09:33:47;;;;;;;;;;;;;;;22.37;67.43;100328.25;5073864;28;19963;-67
2021/08/02 09:36:37;;;;;;;;;;;;;;;22.77;65.32;100326.97;5059849;28;19967;-67
2021/08/02 09:39:22;;;;;;;;;;;;;;;22.81;65.34;100333.59;5075020;28;20024;-67
2021/08/02 09:42:08;;;;;;;;;;;;;;;22.92;64.85;100329.34;5059950;28;19923;-67
2021/08/02 09:45:01;;;;;;;;;;;;;;;22.80;64.49;100331.94;5073760;28;19923;-67
2021/08/02 09:47:47;;;;;;;;;;;;;;;22.46;64.21;100329.69;5059690;28;19939;-67
2021/08/02 09:50:31;;;;;;;;;;;;;;;22.50;64.89;100317.31;5073782;28;19922;-67
2021/08/02 09:53:16;;;;;;;;;;;;;;;22.50;64.93;100328.19;5059150;28;19966;-67
2021/08/02 09:56:00;;;;;;;;;;;;;;;23.04;64.19;100327.56;5059691;28;19965;-67
2021/08/02 09:58:44;;;;;;;;;;;;;;;22.30;64.02;100330.16;5059110;28;19979;-66
2021/08/02 10:01:28;;;;;;;;;;;;;;;22.77;63.62;100321.53;5073547;28;19997;-65
2021/08/02 10:04:12;;;;;;;;;;;;;;;22.62;61.83;100329.16;5059067;28;20353;-67
2021/08/02 10:06:56;;;;;;;;;;;;;;;22.76;61.19;100319.88;5058895;28;19973;-67
2021/08/02 10:09:40;;;;;;;;;;;;;;;23.51;59.38;100319.59;5059227;28;19924;-67
2021/08/02 10:12:24;;;;;;;;;;;;;;;23.39;58.83;100315.09;5059180;28;20001;-66
2021/08/02 10:15:11;;;;;;;;;;;;;;;24.04;58.29;100315.19;5058965;28;19974;-67
2021/08/02 10:17:56;;;;;;;;;;;;;;;25.43;53.78;100312.53;5059221;28;20431;-67
2021/08/02 10:20:40;;;;;;;;;;;;;;;25.45;54.19;100296.78;5059056;28;19926;-67
2021/08/02 10:23:24;;;;;;;;;;;;;;;24.49;55.01;100297.38;5073186;28;19966;-67
2021/08/02 10:26:08;;;;;;;;;;;;;;;;;;5073681;28;19970;-66
2021/08/02 10:28:56;;;;;;;;;;;;;;;23.51;59.71;100307.84;5073346;28;20320;-67
2021/08/02 10:31:44;;;;;;;;;;;;;;;24.54;55.54;100300.25;5058581;28;19924;-67
2021/08/02 10:34:28;;;;;;;;;;;;;;;26.82;49.57;100289.13;5058627;28;20427;-67
2021/08/02 10:37:12;;;;;;;;;;;;;;;28.19;43.67;100284.22;5058689;28;20027;-67
2021/08/02 10:40:02;;;;;;;;;;;;;;;28.40;43.23;100274.31;5057962;28;20074;-65
2021/08/02 10:42:46;;;;;;;;;;;;;;;27.14;46.72;100279.25;5072609;28;19923;-66
2021/08/02 10:45:30;;;;;;;;;;;;;;;26.41;47.70;100280.44;5072769;28;19927;-67
2021/08/02 10:48:20;;;;;;;;;;;;;;;26.49;49.17;100274.56;5058944;28;20288;-66
2021/08/02 10:51:11;;;;;;;;;;;;;;;26.26;49.48;100291.91;5058373;28;19969;-67
2021/08/02 10:54:01;;;;;;;;;;;;;;;27.50;46.80;100284.19;5072485;28;20389;-66
2021/08/02 10:56:51;;;;;;;;;;;;;;;28.47;45.16;100285.91;5072720;28;19971;-67
2021/08/02 10:59:36;;;;;;;;;;;;;;;27.14;45.53;100302.00;5059438;28;19966;-67
2021/08/02 11:02:21;;;;;;;;;;;;;;;26.40;46.94;100289.69;5058273;28;19966;-67
2021/08/02 11:05:04;;;;;;;;;;;;;;;26.20;49.06;100292.06;5060141;28;19923;-67
2021/08/02 11:07:48;;;;;;;;;;;;;;;25.57;50.66;100302.22;5058144;28;20376;-67
2021/08/02 11:10:33;;;;;;;;;;;;;;;24.71;52.11;100303.97;5073677;28;20441;-67
2021/08/02 11:13:26;;;;;;;;;;;;;;;25.85;50.13;100280.41;5058761;28;19966;-66
2021/08/02 11:16:10;;;;;;;;;;;;;;;25.49;51.76;100272.53;5058207;28;19966;-68
2021/08/02 11:18:54;;;;;;;;;;;;;;;25.46;49.94;100283.94;5058617;28;19966;-67
2021/08/02 11:21:37;;;;;;;;;;;;;;;26.22;49.65;100284.44;5062193;28;19923;-67
2021/08/02 11:24:21;;;;;;;;;;;;;;;25.60;50.79;100285.34;5062131;28;19939;-67
2021/08/02 11:27:06;;;;;;;;;;;;;;;26.32;48.99;100282.75;5062027;28;19928;-66
2021/08/02 11:29:51;;;;;;;;;;;;;;;27.22;47.05;100281.56;5062380;28;19927;-67
2021/08/02 11:32:34;;;;;;;;;;;;;;;27.01;46.54;100280.41;5076148;28;19923;-66
2021/08/02 11:35:18;;;;;;;;;;;;;;;28.97;44.16;100281.69;5062039;28;20353;-67
2021/08/02 11:38:03;;;;;;;;;;;;;;;29.93;41.30;100292.19;5062105;28;19923;-66
2021/08/02 11:40:47;;;;;;;;;;;;;;;28.51;41.56;100287.03;5062291;28;19923;-67
2021/08/02 11:43:41;;;;;;;;;;;;;;;27.60;41.68;100276.91;5075929;28;19923;-67
2021/08/02 11:46:25;;;;;;;;;;;;;;;26.26;45.62;100283.72;5061765;28;19969;-67
2021/08/02 11:49:11;;;;;;;;;;;;;;;26.81;45.00;100275.69;5076106;28;19974;-66
2021/08/02 11:51:55;;;;;;;;;;;;;;;27.84;39.66;100264.63;5076984;28;20423;-67
2021/08/02 11:54:39;;;;;;;;;;;;;;;28.64;38.80;100265.50;5061722;28;19923;-65
2021/08/02 11:57:23;;;;;;;;;;;;;;;27.70;41.29;100263.34;5076383;28;19924;-66
2021/08/02 12:00:17;;;;;;;;;;;;;;;27.11;44.40;100269.59;5061438;28;20005;-67
2021/08/02 12:03:08;;;;;;;;;;;;;;;27.92;43.40;100277.06;5075787;28;19923;-65
2021/08/02 12:06:00;;;;;;;;;;;;;;;29.21;42.51;100265.69;5060932;28;20423;-65
2021/08/02 12:08:48;;;;;;;;;;;;;;;29.00;40.87;100264.72;5075580;28;19923;-65
2021/08/02 12:11:39;;;;;;;;;;;;;;;28.14;42.08;100275.13;5060890;28;20468;-64
2021/08/02 12:14:23;;;;;;;;;;;;;;;26.76;46.54;100275.63;5061001;28;19962;-66
2021/08/02 12:17:08;;;;;;;;;;;;;;;26.15;47.15;100270.13;5060783;28;19939;-67
2021/08/02 12:19:51;;;;;;;;;;;;;;;25.97;47.38;100276.63;5060997;28;19961;-65
2021/08/02 12:22:36;;;;;;;;;;;;;;;25.73;47.67;100266.78;5060503;28;19924;-65
2021/08/02 12:25:20;;;;;;;;;;;;;;;26.75;44.57;100273.97;5061014;28;19977;-65
2021/08/02 12:28:06;;;;;;;;;;;;;;;27.75;42.17;100266.19;5074991;28;20384;-65
2021/08/02 12:30:57;;;;;;;;;;;;;;;30.16;37.81;100258.75;5059894;28;20024;-65
2021/08/02 12:33:41;;;;;;;;;;;;;;;29.78;36.33;100269.31;5061215;28;20431;-65
2021/08/02 12:36:24;;;;;;;;;;;;;;;31.16;35.79;100261.59;5074966;28;20406;-65
2021/08/02 12:39:08;;;;;;;;;;;;;;;29.90;37.75;100273.50;5075064;28;19923;-64
2021/08/02 12:41:53;;;;;;;;;;;;;;;30.13;37.48;100264.78;5075188;28;19978;-65
2021/08/02 12:44:40;;;;;;;;;;;;;;;30.40;37.65;100254.38;5074821;28;19969;-65
2021/08/02 12:47:24;;;;;;;;;;;;;;;31.36;36.45;100256.03;5061153;28;20024;-65
2021/08/02 12:50:09;;;;;;;;;;;;;;;31.40;35.70;100254.34;5074723;28;20293;-65
2021/08/02 12:52:53;;;;;;;;;;;;;;;30.19;38.02;100252.69;5074639;28;20012;-65
2021/08/02 12:55:36;;;;;;;;;;;;;;;30.10;39.32;100254.31;5060437;28;19923;-65
2021/08/02 12:58:20;;;;;;;;;;;;;;;29.96;39.14;100252.34;5074604;28;19924;-65
2021/08/02 13:01:06;;;;;;;;;;;;;;;29.27;40.46;100243.47;5060683;28;20340;-65
2021/08/02 13:03:50;;;;;;;;;;;;;;;29.92;40.52;100238.31;5060955;28;19963;-65
2021/08/02 13:06:34;;;;;;;;;;;;;;;31.68;38.46;100240.75;5060491;28;20400;-65
2021/08/02 13:09:18;;;;;;;;;;;;;;;31.48;36.30;100251.03;5060441;28;19962;-65
2021/08/02 13:12:02;;;;;;;;;;;;;;;30.50;37.90;100237.88;5060714;28;19970;-65
2021/08/02 13:14:46;;;;;;;;;;;;;;;29.48;39.67;100250.72;5060179;28;19923;-66
2021/08/02 13:17:30;;;;;;;;;;;;;;;27.93;41.62;100263.09;5060082;28;19927;-65
2021/08/02 13:20:14;;;;;;;;;;;;;;;28.51;40.52;100245.91;5060385;28;19965;-65
2021/08/02 13:23:05;;;;;;;;;;;;;;;28.77;40.04;100245.03;5060279;28;19923;-66
2021/08/02 13:28:51;;;;;;;;;;;;;;;30.90;36.43;100216.72;5074352;28;20327;-66
2021/08/02 13:31:35;;;;;;;;;;;;;;;29.84;39.17;100229.75;5059946;28;19942;-66
2021/08/02 13:34:19;;;;;;;;;;;;;;;30.74;36.90;100228.81;5060058;28;20001;-66
2021/08/02 13:37:04;;;;;;;;;;;;;;;28.95;40.21;100218.03;5073960;28;19923;-65
2021/08/02 13:39:48;;;;;;;;;;;;;;;28.31;42.27;100216.34;5075039;28;19923;-65
2021/08/02 13:42:32;;;;;;;;;;;;;;;28.21;42.83;100223.63;5059812;28;19923;-65
2021/08/02 13:45:17;;;;;;;;;;;;;;;28.18;43.50;100215.94;5073540;28;19966;-66
2021/08/02 13:48:02;;;;;;;;;;;;;;;27.41;44.82;100209.84;5073873;28;19922;-65
2021/08/02 13:50:48;;;;;;;;;;;;;;;28.23;43.19;100216.81;5059906;28;20400;-65
2021/08/02 13:53:32;;;;;;;;;;;;;;;26.55;45.51;100197.88;5073392;28;19928;-66
2021/08/02 13:56:16;;;;;;;;;;;;;;;26.40;44.86;100204.97;5073565;28;19924;-65
2021/08/02 13:59:00;;;;;;;;;;;;;;;25.39;46.23;100201.34;5059534;28;19927;-67
2021/08/02 14:01:44;;;;;;;;;;;;;;;25.18;46.56;100194.63;5059414;28;20335;-65
2021/08/02 14:04:28;;;;;;;;;;;;;;;25.15;45.95;100207.91;5059466;28;20361;-64
2021/08/02 14:07:12;;;;;;;;;;;;;;;26.39;45.57;100192.38;5059024;28;19927;-66